sensor_id;sensor_type;location;lat;lon;timestamp;P1;durP1;ratioP1;P2;durP2;ratioP2
1799;SDS011;919;48.274;12.292;2023-04-03T00:01:15;5.97;;;3.80;;
1799;SDS011;919;48.274;12.292;2023-04-03T00:03:42;4.80;;;4.07;;
1799;SDS011;919;48.274;12.292;2023-04-03T00:06:11;5.67;;;3.47;;
1799;SDS011;919;48.274;12.292;2023-04-03T00:08:38;4.30;;;3.90;;
1799;SDS011;919;48.274;12.292;2023-04-03T00:11:06;5.87;;;4.77;;
1799;SDS011;919;48.274;12.292;2023-04-03T00:13:33;5.23;;;4.17;;
1799;SDS011;919;48.274;12.292;2023-04-03T00:16:00;4.10;;;3.70;;
1799;SDS011;919;48.274;12.292;2023-04-03T00:18:28;4.73;;;3.67;;
1799;SDS011;919;48.274;12.292;2023-04-03T00:20:55;3.93;;;3.63;;
1799;SDS011;919;48.274;12.292;2023-04-03T00:23:23;6.23;;;3.63;;
1799;SDS011;919;48.274;12.292;2023-04-03T00:25:50;4.27;;;3.70;;
1799;SDS011;919;48.274;12.292;2023-04-03T00:28:17;3.40;;;3.10;;
1799;SDS011;919;48.274;12.292;2023-04-03T00:30:43;3.80;;;3.50;;
1799;SDS011;919;48.274;12.292;2023-04-03T00:33:10;3.57;;;3.27;;
1799;SDS011;919;48.274;12.292;2023-04-03T00:35:38;4.10;;;3.43;;
1799;SDS011;919;48.274;12.292;2023-04-03T00:38:05;3.87;;;3.57;;
1799;SDS011;919;48.274;12.292;2023-04-03T00:40:34;4.97;;;4.07;;
1799;SDS011;919;48.274;12.292;2023-04-03T00:43:05;4.13;;;3.70;;
1799;SDS011;919;48.274;12.292;2023-04-03T00:45:38;4.97;;;3.20;;
1799;SDS011;919;48.274;12.292;2023-04-03T00:48:06;3.43;;;3.00;;
1799;SDS011;919;48.274;12.292;2023-04-03T00:50:38;4.17;;;3.37;;
1799;SDS011;919;48.274;12.292;2023-04-03T00:53:06;4.10;;;3.73;;
1799;SDS011;919;48.274;12.292;2023-04-03T00:55:38;3.53;;;3.23;;
1799;SDS011;919;48.274;12.292;2023-04-03T00:58:05;4.90;;;4.40;;
1799;SDS011;919;48.274;12.292;2023-04-03T01:00:33;3.53;;;3.23;;
1799;SDS011;919;48.274;12.292;2023-04-03T01:03:01;5.03;;;2.77;;
1799;SDS011;919;48.274;12.292;2023-04-03T01:05:28;5.10;;;3.53;;
1799;SDS011;919;48.274;12.292;2023-04-03T01:07:55;3.97;;;3.67;;
1799;SDS011;919;48.274;12.292;2023-04-03T01:10:23;3.70;;;3.40;;
1799;SDS011;919;48.274;12.292;2023-04-03T01:12:52;3.80;;;3.40;;
1799;SDS011;919;48.274;12.292;2023-04-03T01:15:19;4.10;;;2.87;;
1799;SDS011;919;48.274;12.292;2023-04-03T01:17:48;3.57;;;3.27;;
1799;SDS011;919;48.274;12.292;2023-04-03T01:23:32;3.73;;;3.10;;
1799;SDS011;919;48.274;12.292;2023-04-03T01:26:15;4.33;;;3.83;;
1799;SDS011;919;48.274;12.292;2023-04-03T01:28:43;4.70;;;3.20;;
1799;SDS011;919;48.274;12.292;2023-04-03T01:31:12;3.37;;;2.60;;
1799;SDS011;919;48.274;12.292;2023-04-03T01:33:46;5.00;;;3.30;;
1799;SDS011;919;48.274;12.292;2023-04-03T01:36:14;4.90;;;3.00;;
1799;SDS011;919;48.274;12.292;2023-04-03T01:38:43;4.77;;;3.70;;
1799;SDS011;919;48.274;12.292;2023-04-03T01:41:10;4.03;;;2.83;;
1799;SDS011;919;48.274;12.292;2023-04-03T01:43:37;2.97;;;2.50;;
1799;SDS011;919;48.274;12.292;2023-04-03T01:46:03;3.30;;;3.00;;
1799;SDS011;919;48.274;12.292;2023-04-03T01:48:30;4.23;;;3.83;;
1799;SDS011;919;48.274;12.292;2023-04-03T01:50:58;6.93;;;3.13;;
1799;SDS011;919;48.274;12.292;2023-04-03T01:53:25;3.00;;;2.80;;
1799;SDS011;919;48.274;12.292;2023-04-03T01:55:51;3.37;;;3.07;;
1799;SDS011;919;48.274;12.292;2023-04-03T01:58:18;3.30;;;2.87;;
1799;SDS011;919;48.274;12.292;2023-04-03T02:00:45;3.50;;;3.03;;
1799;SDS011;919;48.274;12.292;2023-04-03T02:03:12;3.37;;;2.93;;
1799;SDS011;919;48.274;12.292;2023-04-03T02:05:40;3.20;;;2.63;;
1799;SDS011;919;48.274;12.292;2023-04-03T02:08:08;3.30;;;3.00;;
1799;SDS011;919;48.274;12.292;2023-04-03T02:10:35;3.70;;;3.40;;
1799;SDS011;919;48.274;12.292;2023-04-03T02:13:01;3.40;;;3.10;;
1799;SDS011;919;48.274;12.292;2023-04-03T02:15:28;3.90;;;2.83;;
1799;SDS011;919;48.274;12.292;2023-04-03T02:17:55;9.13;;;3.23;;
1799;SDS011;919;48.274;12.292;2023-04-03T02:20:22;5.43;;;3.63;;
1799;SDS011;919;48.274;12.292;2023-04-03T02:22:48;4.37;;;3.97;;
1799;SDS011;919;48.274;12.292;2023-04-03T02:25:16;3.87;;;3.47;;
1799;SDS011;919;48.274;12.292;2023-04-03T02:27:43;3.50;;;3.20;;
1799;SDS011;919;48.274;12.292;2023-04-03T02:30:10;3.60;;;3.30;;
1799;SDS011;919;48.274;12.292;2023-04-03T02:32:38;3.17;;;2.67;;
1799;SDS011;919;48.274;12.292;2023-04-03T02:35:06;2.80;;;2.60;;
1799;SDS011;919;48.274;12.292;2023-04-03T02:37:33;2.90;;;2.70;;
1799;SDS011;919;48.274;12.292;2023-04-03T02:40:00;3.87;;;3.07;;
1799;SDS011;919;48.274;12.292;2023-04-03T02:42:28;3.73;;;3.43;;
1799;SDS011;919;48.274;12.292;2023-04-03T02:44:55;4.50;;;3.60;;
1799;SDS011;919;48.274;12.292;2023-04-03T02:47:21;2.90;;;2.70;;
1799;SDS011;919;48.274;12.292;2023-04-03T02:49:48;3.17;;;2.97;;
1799;SDS011;919;48.274;12.292;2023-04-03T02:52:15;4.07;;;2.77;;
1799;SDS011;919;48.274;12.292;2023-04-03T02:54:42;4.57;;;3.60;;
1799;SDS011;919;48.274;12.292;2023-04-03T02:57:09;3.43;;;3.13;;
1799;SDS011;919;48.274;12.292;2023-04-03T02:59:37;2.87;;;2.63;;
1799;SDS011;919;48.274;12.292;2023-04-03T03:02:05;3.23;;;2.93;;
1799;SDS011;919;48.274;12.292;2023-04-03T03:04:32;3.10;;;2.90;;
1799;SDS011;919;48.274;12.292;2023-04-03T03:06:59;2.70;;;2.50;;
1799;SDS011;919;48.274;12.292;2023-04-03T03:09:25;2.93;;;2.63;;
1799;SDS011;919;48.274;12.292;2023-04-03T03:11:52;6.60;;;3.00;;
1799;SDS011;919;48.274;12.292;2023-04-03T03:14:19;5.00;;;2.93;;
1799;SDS011;919;48.274;12.292;2023-04-03T03:16:47;3.27;;;2.97;;
1799;SDS011;919;48.274;12.292;2023-04-03T03:19:14;3.90;;;3.30;;
1799;SDS011;919;48.274;12.292;2023-04-03T03:21:41;3.23;;;2.67;;
1799;SDS011;919;48.274;12.292;2023-04-03T03:24:07;3.43;;;3.13;;
1799;SDS011;919;48.274;12.292;2023-04-03T03:26:34;3.77;;;3.47;;
1799;SDS011;919;48.274;12.292;2023-04-03T03:29:02;3.77;;;3.20;;
1799;SDS011;919;48.274;12.292;2023-04-03T03:31:28;3.20;;;2.90;;
1799;SDS011;919;48.274;12.292;2023-04-03T03:33:57;2.90;;;2.70;;
1799;SDS011;919;48.274;12.292;2023-04-03T03:36:23;4.70;;;3.90;;
1799;SDS011;919;48.274;12.292;2023-04-03T03:38:50;3.93;;;3.17;;
1799;SDS011;919;48.274;12.292;2023-04-03T03:41:17;4.00;;;3.40;;
1799;SDS011;919;48.274;12.292;2023-04-03T03:43:44;3.63;;;3.33;;
1799;SDS011;919;48.274;12.292;2023-04-03T03:46:10;5.23;;;3.50;;
1799;SDS011;919;48.274;12.292;2023-04-03T03:48:37;3.73;;;3.30;;
1799;SDS011;919;48.274;12.292;2023-04-03T03:51:05;5.00;;;3.67;;
1799;SDS011;919;48.274;12.292;2023-04-03T03:53:32;3.60;;;3.30;;
1799;SDS011;919;48.274;12.292;2023-04-03T03:55:59;3.47;;;3.10;;
1799;SDS011;919;48.274;12.292;2023-04-03T03:58:25;4.13;;;3.33;;
1799;SDS011;919;48.274;12.292;2023-04-03T04:00:52;3.67;;;3.37;;
1799;SDS011;919;48.274;12.292;2023-04-03T04:03:19;3.60;;;3.30;;
1799;SDS011;919;48.274;12.292;2023-04-03T04:05:46;4.07;;;3.10;;
1799;SDS011;919;48.274;12.292;2023-04-03T04:08:14;4.00;;;3.30;;
1799;SDS011;919;48.274;12.292;2023-04-03T04:10:40;3.60;;;3.30;;
1799;SDS011;919;48.274;12.292;2023-04-03T04:13:07;6.10;;;3.40;;
1799;SDS011;919;48.274;12.292;2023-04-03T04:15:34;4.03;;;3.63;;
1799;SDS011;919;48.274;12.292;2023-04-03T04:18:00;4.70;;;3.40;;
1799;SDS011;919;48.274;12.292;2023-04-03T04:20:27;3.60;;;3.30;;
1799;SDS011;919;48.274;12.292;2023-04-03T04:22:54;3.27;;;2.97;;
1799;SDS011;919;48.274;12.292;2023-04-03T04:25:22;4.83;;;3.77;;
1799;SDS011;919;48.274;12.292;2023-04-03T04:27:49;3.93;;;3.53;;
1799;SDS011;919;48.274;12.292;2023-04-03T04:30:16;2.97;;;2.77;;
1799;SDS011;919;48.274;12.292;2023-04-03T04:32:43;3.17;;;2.90;;
1799;SDS011;919;48.274;12.292;2023-04-03T04:35:10;4.40;;;3.57;;
1799;SDS011;919;48.274;12.292;2023-04-03T04:37:37;3.70;;;3.00;;
1799;SDS011;919;48.274;12.292;2023-04-03T04:40:04;4.93;;;3.33;;
1799;SDS011;919;48.274;12.292;2023-04-03T04:42:33;5.53;;;3.43;;
1799;SDS011;919;48.274;12.292;2023-04-03T04:45:00;4.13;;;3.57;;
1799;SDS011;919;48.274;12.292;2023-04-03T04:47:27;4.33;;;3.27;;
1799;SDS011;919;48.274;12.292;2023-04-03T04:49:54;3.60;;;3.30;;
1799;SDS011;919;48.274;12.292;2023-04-03T04:52:21;4.87;;;3.57;;
1799;SDS011;919;48.274;12.292;2023-04-03T04:54:48;3.70;;;3.40;;
1799;SDS011;919;48.274;12.292;2023-04-03T04:57:15;3.83;;;3.53;;
1799;SDS011;919;48.274;12.292;2023-04-03T04:59:43;3.60;;;3.30;;
1799;SDS011;919;48.274;12.292;2023-04-03T05:02:10;3.60;;;3.30;;
1799;SDS011;919;48.274;12.292;2023-04-03T05:04:37;3.00;;;2.70;;
1799;SDS011;919;48.274;12.292;2023-04-03T05:07:03;3.60;;;3.30;;
1799;SDS011;919;48.274;12.292;2023-04-03T05:09:30;3.90;;;2.77;;
1799;SDS011;919;48.274;12.292;2023-04-03T05:11:57;2.67;;;2.47;;
1799;SDS011;919;48.274;12.292;2023-04-03T05:14:23;3.33;;;2.80;;
1799;SDS011;919;48.274;12.292;2023-04-03T05:16:51;3.27;;;3.00;;
1799;SDS011;919;48.274;12.292;2023-04-03T05:19:18;3.70;;;3.40;;
1799;SDS011;919;48.274;12.292;2023-04-03T05:21:45;3.53;;;3.23;;
1799;SDS011;919;48.274;12.292;2023-04-03T05:24:12;3.73;;;3.43;;
1799;SDS011;919;48.274;12.292;2023-04-03T05:26:39;3.37;;;3.07;;
1799;SDS011;919;48.274;12.292;2023-04-03T05:29:06;3.30;;;3.10;;
1799;SDS011;919;48.274;12.292;2023-04-03T05:31:33;3.10;;;2.80;;
1799;SDS011;919;48.274;12.292;2023-04-03T05:34:01;2.93;;;2.73;;
1799;SDS011;919;48.274;12.292;2023-04-03T05:36:28;3.00;;;2.80;;
1799;SDS011;919;48.274;12.292;2023-04-03T05:38:55;3.83;;;2.73;;
1799;SDS011;919;48.274;12.292;2023-04-03T05:41:22;2.77;;;2.57;;
1799;SDS011;919;48.274;12.292;2023-04-03T05:43:49;3.40;;;2.87;;
1799;SDS011;919;48.274;12.292;2023-04-03T05:46:18;3.30;;;3.00;;
1799;SDS011;919;48.274;12.292;2023-04-03T05:48:46;4.30;;;3.40;;
1799;SDS011;919;48.274;12.292;2023-04-03T05:51:15;2.97;;;2.63;;
1799;SDS011;919;48.274;12.292;2023-04-03T05:53:42;4.80;;;3.37;;
1799;SDS011;919;48.274;12.292;2023-04-03T05:56:10;3.43;;;2.90;;
1799;SDS011;919;48.274;12.292;2023-04-03T05:58:37;4.10;;;3.30;;
1799;SDS011;919;48.274;12.292;2023-04-03T06:01:04;3.10;;;2.60;;
1799;SDS011;919;48.274;12.292;2023-04-03T06:03:31;3.87;;;3.47;;
1799;SDS011;919;48.274;12.292;2023-04-03T06:05:58;3.37;;;2.67;;
1799;SDS011;919;48.274;12.292;2023-04-03T06:08:26;3.83;;;3.50;;
1799;SDS011;919;48.274;12.292;2023-04-03T06:10:53;4.43;;;3.87;;
1799;SDS011;919;48.274;12.292;2023-04-03T06:13:20;4.10;;;3.13;;
1799;SDS011;919;48.274;12.292;2023-04-03T06:15:47;4.10;;;3.50;;
1799;SDS011;919;48.274;12.292;2023-04-03T06:18:13;4.30;;;3.70;;
1799;SDS011;919;48.274;12.292;2023-04-03T06:20:40;4.27;;;3.70;;
1799;SDS011;919;48.274;12.292;2023-04-03T06:23:07;4.10;;;3.70;;
1799;SDS011;919;48.274;12.292;2023-04-03T06:25:35;4.60;;;3.83;;
1799;SDS011;919;48.274;12.292;2023-04-03T06:28:01;5.20;;;3.80;;
1799;SDS011;919;48.274;12.292;2023-04-03T06:30:28;4.23;;;3.40;;
1799;SDS011;919;48.274;12.292;2023-04-03T06:32:55;4.33;;;3.93;;
1799;SDS011;919;48.274;12.292;2023-04-03T06:35:22;4.70;;;3.70;;
1799;SDS011;919;48.274;12.292;2023-04-03T06:37:50;7.43;;;4.40;;
1799;SDS011;919;48.274;12.292;2023-04-03T06:40:18;7.57;;;3.63;;
1799;SDS011;919;48.274;12.292;2023-04-03T06:42:48;4.40;;;3.90;;
1799;SDS011;919;48.274;12.292;2023-04-03T06:45:15;3.97;;;3.50;;
1799;SDS011;919;48.274;12.292;2023-04-03T06:47:42;4.00;;;3.57;;
1799;SDS011;919;48.274;12.292;2023-04-03T06:50:09;6.70;;;4.20;;
1799;SDS011;919;48.274;12.292;2023-04-03T06:52:39;4.67;;;3.47;;
1799;SDS011;919;48.274;12.292;2023-04-03T06:55:06;5.40;;;4.00;;
1799;SDS011;919;48.274;12.292;2023-04-03T06:57:34;4.07;;;3.67;;
1799;SDS011;919;48.274;12.292;2023-04-03T07:00:03;5.73;;;3.40;;
1799;SDS011;919;48.274;12.292;2023-04-03T07:02:32;4.17;;;3.77;;
1799;SDS011;919;48.274;12.292;2023-04-03T07:04:58;6.37;;;4.37;;
1799;SDS011;919;48.274;12.292;2023-04-03T07:07:25;3.73;;;3.40;;
1799;SDS011;919;48.274;12.292;2023-04-03T07:09:52;5.10;;;3.80;;
1799;SDS011;919;48.274;12.292;2023-04-03T07:12:19;3.53;;;3.20;;
1799;SDS011;919;48.274;12.292;2023-04-03T07:14:46;4.33;;;3.93;;
1799;SDS011;919;48.274;12.292;2023-04-03T07:17:14;4.47;;;4.07;;
1799;SDS011;919;48.274;12.292;2023-04-03T07:19:41;5.57;;;4.17;;
1799;SDS011;919;48.274;12.292;2023-04-03T07:22:07;4.80;;;4.30;;
1799;SDS011;919;48.274;12.292;2023-04-03T07:24:36;4.13;;;3.70;;
1799;SDS011;919;48.274;12.292;2023-04-03T07:27:03;4.70;;;4.30;;
1799;SDS011;919;48.274;12.292;2023-04-03T07:29:29;7.67;;;4.13;;
1799;SDS011;919;48.274;12.292;2023-04-03T07:31:56;5.10;;;4.60;;
1799;SDS011;919;48.274;12.292;2023-04-03T07:34:25;4.97;;;4.47;;
1799;SDS011;919;48.274;12.292;2023-04-03T07:36:51;5.23;;;4.43;;
1799;SDS011;919;48.274;12.292;2023-04-03T07:39:18;4.20;;;3.90;;
1799;SDS011;919;48.274;12.292;2023-04-03T07:41:45;4.73;;;4.20;;
1799;SDS011;919;48.274;12.292;2023-04-03T07:44:12;4.00;;;3.50;;
1799;SDS011;919;48.274;12.292;2023-04-03T07:46:39;5.47;;;4.20;;
1799;SDS011;919;48.274;12.292;2023-04-03T07:49:07;4.53;;;4.13;;
1799;SDS011;919;48.274;12.292;2023-04-03T07:51:35;4.50;;;4.10;;
1799;SDS011;919;48.274;12.292;2023-04-03T07:54:02;9.53;;;4.40;;
1799;SDS011;919;48.274;12.292;2023-04-03T07:56:29;8.43;;;4.10;;
1799;SDS011;919;48.274;12.292;2023-04-03T07:58:57;4.37;;;3.43;;
1799;SDS011;919;48.274;12.292;2023-04-03T08:01:23;4.60;;;4.07;;
1799;SDS011;919;48.274;12.292;2023-04-03T08:03:50;4.70;;;4.30;;
1799;SDS011;919;48.274;12.292;2023-04-03T08:06:17;6.07;;;4.60;;
1799;SDS011;919;48.274;12.292;2023-04-03T08:08:45;4.50;;;4.07;;
1799;SDS011;919;48.274;12.292;2023-04-03T08:11:12;4.73;;;4.27;;
1799;SDS011;919;48.274;12.292;2023-04-03T08:13:39;5.70;;;4.70;;
1799;SDS011;919;48.274;12.292;2023-04-03T08:16:09;4.47;;;3.60;;
1799;SDS011;919;48.274;12.292;2023-04-03T08:18:37;5.10;;;4.00;;
1799;SDS011;919;48.274;12.292;2023-04-03T08:21:05;6.33;;;4.53;;
1799;SDS011;919;48.274;12.292;2023-04-03T08:23:33;4.93;;;4.53;;
1799;SDS011;919;48.274;12.292;2023-04-03T08:26:06;4.80;;;3.83;;
1799;SDS011;919;48.274;12.292;2023-04-03T08:28:33;4.33;;;3.93;;
1799;SDS011;919;48.274;12.292;2023-04-03T08:31:04;4.93;;;4.20;;
1799;SDS011;919;48.274;12.292;2023-04-03T08:33:31;5.03;;;3.60;;
1799;SDS011;919;48.274;12.292;2023-04-03T08:36:00;7.27;;;4.53;;
1799;SDS011;919;48.274;12.292;2023-04-03T08:38:27;4.13;;;3.73;;
1799;SDS011;919;48.274;12.292;2023-04-03T08:41:01;4.90;;;4.00;;
1799;SDS011;919;48.274;12.292;2023-04-03T08:43:38;5.70;;;4.10;;
1799;SDS011;919;48.274;12.292;2023-04-03T08:46:13;6.63;;;4.00;;
1799;SDS011;919;48.274;12.292;2023-04-03T08:48:42;4.20;;;3.90;;
1799;SDS011;919;48.274;12.292;2023-04-03T08:51:11;4.73;;;3.87;;
1799;SDS011;919;48.274;12.292;2023-04-03T08:53:41;4.47;;;4.07;;
1799;SDS011;919;48.274;12.292;2023-04-03T08:56:12;4.17;;;3.87;;
1799;SDS011;919;48.274;12.292;2023-04-03T09:01:40;7.63;;;4.00;;
1799;SDS011;919;48.274;12.292;2023-04-03T09:04:09;6.87;;;4.43;;
1799;SDS011;919;48.274;12.292;2023-04-03T09:06:39;5.27;;;4.17;;
1799;SDS011;919;48.274;12.292;2023-04-03T09:09:12;5.50;;;4.13;;
1799;SDS011;919;48.274;12.292;2023-04-03T09:11:46;4.93;;;3.80;;
1799;SDS011;919;48.274;12.292;2023-04-03T09:14:21;4.70;;;4.30;;
1799;SDS011;919;48.274;12.292;2023-04-03T09:16:57;4.50;;;4.10;;
1799;SDS011;919;48.274;12.292;2023-04-03T09:19:28;3.40;;;3.10;;
1799;SDS011;919;48.274;12.292;2023-04-03T09:22:03;4.13;;;3.80;;
1799;SDS011;919;48.274;12.292;2023-04-03T09:24:39;3.80;;;3.50;;
1799;SDS011;919;48.274;12.292;2023-04-03T09:27:12;5.50;;;4.03;;
1799;SDS011;919;48.274;12.292;2023-04-03T09:29:40;4.40;;;3.47;;
1799;SDS011;919;48.274;12.292;2023-04-03T09:32:18;3.50;;;3.20;;
1799;SDS011;919;48.274;12.292;2023-04-03T09:34:47;3.93;;;3.23;;
1799;SDS011;919;48.274;12.292;2023-04-03T09:40:04;4.13;;;3.73;;
1799;SDS011;919;48.274;12.292;2023-04-03T09:42:45;5.33;;;4.30;;
1799;SDS011;919;48.274;12.292;2023-04-03T09:45:21;3.80;;;3.50;;
1799;SDS011;919;48.274;12.292;2023-04-03T09:48:03;3.87;;;3.53;;
1799;SDS011;919;48.274;12.292;2023-04-03T09:50:32;4.00;;;3.60;;
1799;SDS011;919;48.274;12.292;2023-04-03T09:53:02;4.90;;;3.90;;
1799;SDS011;919;48.274;12.292;2023-04-03T09:55:32;4.67;;;3.60;;
1799;SDS011;919;48.274;12.292;2023-04-03T09:58:22;4.23;;;3.67;;
1799;SDS011;919;48.274;12.292;2023-04-03T10:00:53;3.40;;;3.10;;
1799;SDS011;919;48.274;12.292;2023-04-03T10:03:23;4.30;;;3.70;;
1799;SDS011;919;48.274;12.292;2023-04-03T10:05:52;6.63;;;3.97;;
1799;SDS011;919;48.274;12.292;2023-04-03T10:08:21;4.00;;;3.60;;
1799;SDS011;919;48.274;12.292;2023-04-03T10:11:05;5.17;;;3.03;;
1799;SDS011;919;48.274;12.292;2023-04-03T10:13:50;3.50;;;3.20;;
1799;SDS011;919;48.274;12.292;2023-04-03T10:16:20;3.33;;;3.13;;
1799;SDS011;919;48.274;12.292;2023-04-03T10:18:51;6.43;;;3.37;;
1799;SDS011;919;48.274;12.292;2023-04-03T10:21:31;5.20;;;3.50;;
1799;SDS011;919;48.274;12.292;2023-04-03T10:24:06;7.57;;;4.07;;
1799;SDS011;919;48.274;12.292;2023-04-03T10:26:39;3.50;;;3.20;;
1799;SDS011;919;48.274;12.292;2023-04-03T10:29:15;3.00;;;2.80;;
1799;SDS011;919;48.274;12.292;2023-04-03T10:31:51;3.80;;;3.10;;
1799;SDS011;919;48.274;12.292;2023-04-03T10:34:28;7.20;;;3.20;;
1799;SDS011;919;48.274;12.292;2023-04-03T10:37:00;3.83;;;3.00;;
1799;SDS011;919;48.274;12.292;2023-04-03T10:39:32;3.20;;;2.90;;
1799;SDS011;919;48.274;12.292;2023-04-03T10:42:06;5.20;;;2.80;;
1799;SDS011;919;48.274;12.292;2023-04-03T10:44:42;3.40;;;3.07;;
1799;SDS011;919;48.274;12.292;2023-04-03T10:47:28;2.83;;;2.63;;
1799;SDS011;919;48.274;12.292;2023-04-03T10:50:02;3.63;;;3.10;;
1799;SDS011;919;48.274;12.292;2023-04-03T10:52:42;2.97;;;2.77;;
1799;SDS011;919;48.274;12.292;2023-04-03T10:55:17;2.60;;;2.40;;
1799;SDS011;919;48.274;12.292;2023-04-03T10:57:55;3.33;;;2.27;;
1799;SDS011;919;48.274;12.292;2023-04-03T11:00:25;3.90;;;2.73;;
1799;SDS011;919;48.274;12.292;2023-04-03T11:02:57;2.77;;;2.30;;
1799;SDS011;919;48.274;12.292;2023-04-03T11:05:28;3.47;;;2.47;;
1799;SDS011;919;48.274;12.292;2023-04-03T11:08:01;2.60;;;2.30;;
1799;SDS011;919;48.274;12.292;2023-04-03T11:10:35;2.67;;;2.10;;
1799;SDS011;919;48.274;12.292;2023-04-03T11:13:07;2.93;;;2.07;;
1799;SDS011;919;48.274;12.292;2023-04-03T11:15:41;2.70;;;2.07;;
1799;SDS011;919;48.274;12.292;2023-04-03T11:18:10;5.50;;;2.57;;
1799;SDS011;919;48.274;12.292;2023-04-03T11:20:42;2.60;;;2.00;;
1799;SDS011;919;48.274;12.292;2023-04-03T11:23:15;2.10;;;1.97;;
1799;SDS011;919;48.274;12.292;2023-04-03T11:25:47;3.00;;;2.10;;
1799;SDS011;919;48.274;12.292;2023-04-03T11:28:18;4.97;;;1.73;;
1799;SDS011;919;48.274;12.292;2023-04-03T11:30:47;2.57;;;1.97;;
1799;SDS011;919;48.274;12.292;2023-04-03T11:33:25;3.20;;;1.93;;
1799;SDS011;919;48.274;12.292;2023-04-03T11:36:03;3.73;;;2.20;;
1799;SDS011;919;48.274;12.292;2023-04-03T11:38:36;1.70;;;1.60;;
1799;SDS011;919;48.274;12.292;2023-04-03T11:41:08;2.07;;;1.87;;
1799;SDS011;919;48.274;12.292;2023-04-03T11:43:39;2.50;;;1.60;;
1799;SDS011;919;48.274;12.292;2023-04-03T11:46:09;2.60;;;2.30;;
1799;SDS011;919;48.274;12.292;2023-04-03T11:48:47;2.67;;;2.00;;
1799;SDS011;919;48.274;12.292;2023-04-03T12:03:55;2.80;;;1.90;;
1799;SDS011;919;48.274;12.292;2023-04-03T12:12:42;2.60;;;2.23;;
1799;SDS011;919;48.274;12.292;2023-04-03T12:18:40;1.70;;;1.60;;
1799;SDS011;919;48.274;12.292;2023-04-03T12:21:08;1.60;;;1.47;;
1799;SDS011;919;48.274;12.292;2023-04-03T12:23:35;4.63;;;1.73;;
1799;SDS011;919;48.274;12.292;2023-04-03T12:26:21;2.53;;;1.50;;
1799;SDS011;919;48.274;12.292;2023-04-03T12:28:51;1.67;;;1.57;;
1799;SDS011;919;48.274;12.292;2023-04-03T12:31:20;1.53;;;1.43;;
1799;SDS011;919;48.274;12.292;2023-04-03T12:34:01;1.60;;;1.50;;
1799;SDS011;919;48.274;12.292;2023-04-03T12:36:41;1.20;;;1.10;;
1799;SDS011;919;48.274;12.292;2023-04-03T12:39:17;1.47;;;1.37;;
1799;SDS011;919;48.274;12.292;2023-04-03T12:42:05;1.60;;;1.50;;
1799;SDS011;919;48.274;12.292;2023-04-03T12:44:52;1.50;;;1.40;;
1799;SDS011;919;48.274;12.292;2023-04-03T12:47:27;1.97;;;1.50;;
1799;SDS011;919;48.274;12.292;2023-04-03T12:49:59;4.63;;;1.50;;
1799;SDS011;919;48.274;12.292;2023-04-03T12:52:30;3.17;;;1.50;;
1799;SDS011;919;48.274;12.292;2023-04-03T12:55:01;1.60;;;1.50;;
1799;SDS011;919;48.274;12.292;2023-04-03T12:57:30;1.30;;;1.23;;
1799;SDS011;919;48.274;12.292;2023-04-03T12:59:57;1.40;;;1.30;;
1799;SDS011;919;48.274;12.292;2023-04-03T13:02:26;1.10;;;1.00;;
1799;SDS011;919;48.274;12.292;2023-04-03T13:04:55;1.77;;;1.27;;
1799;SDS011;919;48.274;12.292;2023-04-03T13:07:26;2.40;;;1.60;;
1799;SDS011;919;48.274;12.292;2023-04-03T13:09:57;1.43;;;1.33;;
1799;SDS011;919;48.274;12.292;2023-04-03T13:12:25;1.27;;;1.17;;
1799;SDS011;919;48.274;12.292;2023-04-03T13:14:52;6.60;;;1.30;;
1799;SDS011;919;48.274;12.292;2023-04-03T13:17:20;2.13;;;1.80;;
1799;SDS011;919;48.274;12.292;2023-04-03T13:19:47;2.07;;;1.60;;
1799;SDS011;919;48.274;12.292;2023-04-03T13:22:19;2.00;;;1.67;;
1799;SDS011;919;48.274;12.292;2023-04-03T13:24:54;1.60;;;1.50;;
1799;SDS011;919;48.274;12.292;2023-04-03T13:27:23;1.60;;;1.40;;
1799;SDS011;919;48.274;12.292;2023-04-03T13:29:51;1.20;;;1.03;;
1799;SDS011;919;48.274;12.292;2023-04-03T13:32:19;1.63;;;1.20;;
1799;SDS011;919;48.274;12.292;2023-04-03T13:34:49;1.43;;;1.33;;
1799;SDS011;919;48.274;12.292;2023-04-03T13:37:19;1.60;;;1.50;;
1799;SDS011;919;48.274;12.292;2023-04-03T13:39:57;1.80;;;1.47;;
1799;SDS011;919;48.274;12.292;2023-04-03T13:42:27;1.73;;;1.40;;
1799;SDS011;919;48.274;12.292;2023-04-03T13:45:09;2.50;;;1.30;;
1799;SDS011;919;48.274;12.292;2023-04-03T13:47:43;1.27;;;1.13;;
1799;SDS011;919;48.274;12.292;2023-04-03T13:50:15;2.80;;;1.07;;
1799;SDS011;919;48.274;12.292;2023-04-03T13:52:45;1.23;;;1.10;;
1799;SDS011;919;48.274;12.292;2023-04-03T13:55:22;1.97;;;1.40;;
1799;SDS011;919;48.274;12.292;2023-04-03T13:57:52;2.50;;;1.07;;
1799;SDS011;919;48.274;12.292;2023-04-03T14:00:32;2.40;;;1.77;;
1799;SDS011;919;48.274;12.292;2023-04-03T14:03:11;1.53;;;1.30;;
1799;SDS011;919;48.274;12.292;2023-04-03T14:05:40;1.00;;;0.90;;
1799;SDS011;919;48.274;12.292;2023-04-03T14:08:06;1.30;;;1.20;;
1799;SDS011;919;48.274;12.292;2023-04-03T14:10:36;1.00;;;1.00;;
1799;SDS011;919;48.274;12.292;2023-04-03T14:13:03;3.07;;;1.37;;
1799;SDS011;919;48.274;12.292;2023-04-03T14:15:30;1.60;;;1.33;;
1799;SDS011;919;48.274;12.292;2023-04-03T14:17:58;2.90;;;1.33;;
1799;SDS011;919;48.274;12.292;2023-04-03T14:20:25;1.80;;;1.00;;
1799;SDS011;919;48.274;12.292;2023-04-03T14:22:53;1.30;;;1.20;;
1799;SDS011;919;48.274;12.292;2023-04-03T14:25:20;1.10;;;1.10;;
1799;SDS011;919;48.274;12.292;2023-04-03T14:27:51;2.13;;;1.50;;
1799;SDS011;919;48.274;12.292;2023-04-03T14:30:19;1.40;;;1.10;;
1799;SDS011;919;48.274;12.292;2023-04-03T14:32:49;1.10;;;1.00;;
1799;SDS011;919;48.274;12.292;2023-04-03T14:35:17;2.70;;;1.37;;
1799;SDS011;919;48.274;12.292;2023-04-03T14:37:44;1.20;;;1.10;;
1799;SDS011;919;48.274;12.292;2023-04-03T14:40:13;1.20;;;1.10;;
1799;SDS011;919;48.274;12.292;2023-04-03T14:42:41;1.30;;;1.20;;
1799;SDS011;919;48.274;12.292;2023-04-03T14:45:11;2.33;;;1.40;;
1799;SDS011;919;48.274;12.292;2023-04-03T14:47:39;1.27;;;1.17;;
1799;SDS011;919;48.274;12.292;2023-04-03T14:50:11;4.17;;;1.60;;
1799;SDS011;919;48.274;12.292;2023-04-03T14:52:40;2.47;;;1.33;;
1799;SDS011;919;48.274;12.292;2023-04-03T14:55:08;1.40;;;1.30;;
1799;SDS011;919;48.274;12.292;2023-04-03T14:57:35;1.30;;;1.20;;
1799;SDS011;919;48.274;12.292;2023-04-03T15:00:06;2.63;;;1.40;;
1799;SDS011;919;48.274;12.292;2023-04-03T15:02:39;1.17;;;1.17;;
1799;SDS011;919;48.274;12.292;2023-04-03T15:05:07;1.77;;;1.50;;
1799;SDS011;919;48.274;12.292;2023-04-03T15:07:36;1.00;;;1.00;;
1799;SDS011;919;48.274;12.292;2023-04-03T15:10:13;1.47;;;1.07;;
1799;SDS011;919;48.274;12.292;2023-04-03T15:12:42;2.50;;;1.43;;
1799;SDS011;919;48.274;12.292;2023-04-03T15:15:10;3.20;;;1.67;;
1799;SDS011;919;48.274;12.292;2023-04-03T15:17:37;1.70;;;1.23;;
1799;SDS011;919;48.274;12.292;2023-04-03T15:20:09;2.90;;;1.40;;
1799;SDS011;919;48.274;12.292;2023-04-03T15:22:39;1.40;;;1.30;;
1799;SDS011;919;48.274;12.292;2023-04-03T15:25:06;1.33;;;1.23;;
1799;SDS011;919;48.274;12.292;2023-04-03T15:27:34;2.03;;;1.60;;
1799;SDS011;919;48.274;12.292;2023-04-03T15:30:01;2.77;;;1.80;;
1799;SDS011;919;48.274;12.292;2023-04-03T15:32:29;1.43;;;1.33;;
1799;SDS011;919;48.274;12.292;2023-04-03T15:34:56;1.50;;;1.20;;
1799;SDS011;919;48.274;12.292;2023-04-03T15:37:24;1.57;;;1.20;;
1799;SDS011;919;48.274;12.292;2023-04-03T15:39:51;2.60;;;1.37;;
1799;SDS011;919;48.274;12.292;2023-04-03T15:42:17;1.70;;;1.60;;
1799;SDS011;919;48.274;12.292;2023-04-03T15:44:44;1.43;;;1.30;;
1799;SDS011;919;48.274;12.292;2023-04-03T15:47:11;3.13;;;1.40;;
1799;SDS011;919;48.274;12.292;2023-04-03T15:49:38;1.90;;;1.10;;
1799;SDS011;919;48.274;12.292;2023-04-03T15:52:05;3.03;;;1.47;;
1799;SDS011;919;48.274;12.292;2023-04-03T15:54:33;1.93;;;1.40;;
1799;SDS011;919;48.274;12.292;2023-04-03T15:57:00;2.57;;;1.97;;
1799;SDS011;919;48.274;12.292;2023-04-03T15:59:27;1.53;;;1.43;;